createdAt,value
2022-09-07T00:00:00.000Z,8.66
2022-09-07T00:15:00.000Z,8.55
2022-09-07T00:30:00.000Z,8.26
2022-09-07T00:45:00.000Z,8.47
2022-09-07T01:00:00.000Z,8.27
2022-09-07T01:15:00.000Z,8.42
2022-09-07T01:30:00.000Z,8.6
2022-09-07T01:45:00.000Z,8.51
2022-09-07T02:00:00.000Z,9.64
2022-09-07T02:15:00.000Z,10
2022-09-07T02:30:00.000Z,10.18
2022-09-07T02:45:00.000Z,9.96
2022-09-07T03:00:00.000Z,9.71
2022-09-07T03:15:00.000Z,12.8
2022-09-07T03:30:00.000Z,14.31
2022-09-07T03:45:00.000Z,14.61
2022-09-07T04:00:00.000Z,17.08
2022-09-07T04:15:00.000Z,15.85
2022-09-07T04:30:00.000Z,16.31
2022-09-07T04:45:00.000Z,15.88
2022-09-07T05:00:00.000Z,15.74
2022-09-07T05:15:00.000Z,11.27
2022-09-07T05:30:00.000Z,10.28
2022-09-07T05:45:00.000Z,9.14
2022-09-07T06:00:00.000Z,7.71
2022-09-07T06:15:00.000Z,8.51
2022-09-07T06:30:00.000Z,7.29
2022-09-07T06:45:00.000Z,7.29
2022-09-07T07:00:00.000Z,7.39
2022-09-07T07:15:00.000Z,7.42
2022-09-07T07:45:00.000Z,7.53
2022-09-07T08:00:00.000Z,7.35
2022-09-07T08:15:00.000Z,7.35
2022-09-07T08:30:00.000Z,7.33
2022-09-07T08:45:00.000Z,7.2
2022-09-07T09:00:00.000Z,6.99
2022-09-07T09:15:00.000Z,7.15
2022-09-07T09:30:00.000Z,7.06
2022-09-07T09:45:00.000Z,6.06
2022-09-07T10:00:00.000Z,8.01
2022-09-07T10:15:00.000Z,6.73
2022-09-07T10:30:00.000Z,7.26
2022-09-07T10:45:00.000Z,7.11
2022-09-07T11:00:00.000Z,7.4
2022-09-07T11:15:00.000Z,7.32
2022-09-07T11:30:00.000Z,7.19
2022-09-07T11:45:00.000Z,7.32
2022-09-07T12:00:00.000Z,7.45
2022-09-07T12:15:00.000Z,7.18
2022-09-07T12:30:00.000Z,7.28
2022-09-07T12:45:00.000Z,7.27
2022-09-07T13:00:00.000Z,7.21
2022-09-07T13:15:00.000Z,7.44
2022-09-07T13:30:00.000Z,7.34
2022-09-07T13:45:00.000Z,7.26
2022-09-07T14:00:00.000Z,7.75
2022-09-07T14:15:00.000Z,7.76
2022-09-07T14:30:00.000Z,7.32
2022-09-07T14:45:00.000Z,8.19
2022-09-07T15:00:00.000Z,7.27
2022-09-07T15:15:00.000Z,7.52
2022-09-07T15:30:00.000Z,7.15
2022-09-07T15:45:00.000Z,7.36
2022-09-07T16:00:00.000Z,7.44
2022-09-07T16:15:00.000Z,7.51
2022-09-07T16:45:00.000Z,9.99
2022-09-07T17:00:00.000Z,8.41
2022-09-07T17:15:00.000Z,8.56
2022-09-07T17:30:00.000Z,8.02
2022-09-07T17:45:00.000Z,8.09
2022-09-07T18:00:00.000Z,8.78
2022-09-07T18:15:00.000Z,9.04
2022-09-07T18:30:00.000Z,11.24
2022-09-07T18:45:00.000Z,9.79
2022-09-07T19:00:00.000Z,9
2022-09-07T19:15:00.000Z,8.45
2022-09-07T19:30:00.000Z,8.14
2022-09-07T19:45:00.000Z,9.82
2022-09-07T20:00:00.000Z,9.28
2022-09-07T20:15:00.000Z,9.19
2022-09-07T20:30:00.000Z,9.67
2022-09-07T20:45:00.000Z,9.62
2022-09-07T21:00:00.000Z,10.98
2022-09-07T21:15:00.000Z,9.71
2022-09-07T21:30:00.000Z,8.28
2022-09-07T21:45:00.000Z,8.69
2022-09-07T22:00:00.000Z,9.81
2022-09-07T22:15:00.000Z,11.07
2022-09-07T22:30:00.000Z,10.76
2022-09-07T22:45:00.000Z,10.86
2022-09-07T23:00:00.000Z,9.34
2022-09-07T23:15:00.000Z,9.45
2022-09-07T23:30:00.000Z,8.72
2022-09-07T23:45:00.000Z,8.71
